Time;durP1;ratioP1;P1;durP2;ratioP2;P2;SDS_P1;SDS_P2;PMS_P1;PMS_P2;Temp;Humidity;BMP_temperature;BMP_pressure;BME280_temperature;BME280_humidity;BME280_pressure;Samples;Min_cycle;Max_cycle;Signal;HPM_P1;HPM_P2
2023/03/05 00:00:24;;;;;;;9.97;3.60;;;;;;;;;;5035278;28;20179;-68
2023/03/05 00:02:50;;;;;;;9.63;3.07;;;;;;;;;;5035344;28;20171;-68
2023/03/05 00:05:16;;;;;;;13.90;3.53;;;;;;;;;;5034647;28;20658;-68
2023/03/05 00:07:42;;;;;;;16.50;3.60;;;;;;;;;;5034241;28;20211;-68
2023/03/05 00:10:08;;;;;;;12.03;2.80;;;;;;;;;;5034773;28;20175;-68
2023/03/05 00:12:34;;;;;;;11.83;3.63;;;;;;;;;;5034621;28;20187;-67
2023/03/05 00:15:00;;;;;;;12.80;3.13;;;;;;;;;;5034872;28;20641;-67
2023/03/05 00:17:26;;;;;;;13.07;3.60;;;;;;;;;;5037895;28;20694;-69
2023/03/05 00:19:52;;;;;;;13.60;3.40;;;;;;;;;;5038952;28;20186;-68
2023/03/05 00:22:18;;;;;;;10.30;3.73;;;;;;;;;;5038454;28;20183;-69
2023/03/05 00:24:44;;;;;;;12.17;3.93;;;;;;;;;;5038878;28;20186;-68
2023/03/05 00:27:10;;;;;;;15.47;3.83;;;;;;;;;;5038679;28;20191;-68
2023/03/05 00:29:36;;;;;;;11.77;4.17;;;;;;;;;;5038581;28;20179;-68
2023/03/05 00:32:02;;;;;;;14.43;4.53;;;;;;;;;;5020651;28;20202;-68
2023/03/05 00:34:28;;;;;;;22.10;7.03;;;;;;;;;;5039039;28;20592;-69
2023/03/05 00:36:54;;;;;;;17.13;5.70;;;;;;;;;;5038346;28;20195;-69
2023/03/05 00:39:21;;;;;;;17.50;5.67;;;;;;;;;;5037944;28;20633;-69
2023/03/05 00:41:47;;;;;;;17.30;5.63;;;;;;;;;;5038382;28;20203;-69
2023/03/05 00:44:13;;;;;;;13.87;5.17;;;;;;;;;;5038110;28;20209;-67
2023/03/05 00:46:39;;;;;;;14.33;5.20;;;;;;;;;;5020247;28;20242;-66
2023/03/05 00:49:05;;;;;;;12.60;3.97;;;;;;;;;;5020058;28;20198;-68
2023/03/05 00:51:31;;;;;;;11.87;4.90;;;;;;;;;;5037921;28;20578;-68
2023/03/05 00:53:57;;;;;;;10.90;4.27;;;;;;;;;;5038110;28;20183;-69
2023/03/05 00:56:23;;;;;;;17.67;5.30;;;;;;;;;;5037513;28;20253;-68
2023/03/05 00:58:49;;;;;;;17.90;5.50;;;;;;;;;;5038139;28;20225;-66
2023/03/05 01:01:15;;;;;;;15.10;5.33;;;;;;;;;;5038102;28;20258;-69
2023/03/05 01:03:42;;;;;;;11.33;4.27;;;;;;;;;;5037991;28;20182;-69
2023/03/05 01:06:09;;;;;;;14.17;4.33;;;;;;;;;;5037899;28;20591;-68
2023/03/05 01:08:35;;;;;;;11.60;4.50;;;;;;;;;;5037955;28;20252;-68
2023/03/05 01:11:01;;;;;;;10.87;4.27;;;;;;;;;;5037810;28;20264;-68
2023/03/05 01:13:27;;;;;;;12.83;3.93;;;;;;;;;;5037932;28;20183;-68
2023/03/05 01:15:53;;;;;;;16.63;4.33;;;;;;;;;;5037519;28;20263;-68
2023/03/05 01:18:20;;;;;;;11.80;4.20;;;;;;;;;;5038049;28;20181;-68
2023/03/05 01:20:46;;;;;;;12.07;4.40;;;;;;;;;;5037682;28;20215;-68
2023/03/05 01:23:12;;;;;;;15.93;3.70;;;;;;;;;;5019715;28;20187;-68
2023/03/05 01:25:38;;;;;;;14.00;4.13;;;;;;;;;;5037723;28;20523;-68
2023/03/05 01:28:04;;;;;;;8.57;3.30;;;;;;;;;;5019767;28;20240;-70
2023/03/05 01:30:30;;;;;;;19.37;4.30;;;;;;;;;;5037698;28;20183;-67
2023/03/05 01:32:56;;;;;;;11.20;3.97;;;;;;;;;;5036692;28;20178;-67
2023/03/05 01:35:24;;;;;;;12.40;4.10;;;;;;;;;;5040280;28;20302;-68
2023/03/05 01:37:50;;;;;;;14.20;3.53;;;;;;;;;;5040478;28;20263;-68
2023/03/05 01:40:18;;;;;;;11.30;3.60;;;;;;;;;;5041518;28;20225;-69
2023/03/05 01:42:45;;;;;;;19.43;3.87;;;;;;;;;;5037264;28;20172;-68
2023/03/05 01:45:13;;;;;;;15.37;4.07;;;;;;;;;;5037459;28;20222;-69
2023/03/05 01:47:39;;;;;;;12.90;4.03;;;;;;;;;;5018938;28;20195;-68
2023/03/05 01:50:06;;;;;;;16.30;4.00;;;;;;;;;;5037477;28;20602;-68
2023/03/05 01:52:34;;;;;;;13.10;4.10;;;;;;;;;;5037056;28;20207;-67
2023/03/05 01:55:05;;;;;;;11.57;3.43;;;;;;;;;;5037648;28;20179;-67
2023/03/05 01:57:33;;;;;;;14.50;4.33;;;;;;;;;;5019228;28;20242;-67
2023/03/05 02:00:01;;;;;;;10.03;4.40;;;;;;;;;;5036569;28;20626;-67
2023/03/05 02:02:27;;;;;;;12.57;3.90;;;;;;;;;;5036756;28;20183;-68
2023/03/05 02:05:03;;;;;;;12.90;4.47;;;;;;;;;;5037009;28;20529;-68
2023/03/05 02:07:30;;;;;;;14.50;4.03;;;;;;;;;;5019150;28;20685;-67
2023/03/05 02:09:56;;;;;;;15.10;4.40;;;;;;;;;;5037125;28;20186;-68
2023/03/05 02:12:22;;;;;;;14.00;4.20;;;;;;;;;;5018989;28;20199;-67
2023/03/05 02:14:50;;;;;;;22.50;4.83;;;;;;;;;;5018880;28;20649;-66
2023/03/05 02:17:17;;;;;;;16.37;4.63;;;;;;;;;;5036698;28;20631;-67
2023/03/05 02:19:48;;;;;;;12.73;4.20;;;;;;;;;;5036902;28;20183;-68
2023/03/05 02:22:15;;;;;;;14.83;4.13;;;;;;;;;;5036629;28;20193;-67
2023/03/05 02:24:41;;;;;;;8.27;3.87;;;;;;;;;;5036478;28;20179;-67
2023/03/05 02:27:07;;;;;;;13.37;3.83;;;;;;;;;;5036485;28;20210;-67
2023/03/05 02:29:33;;;;;;;14.17;3.83;;;;;;;;;;5036376;28;20274;-69
2023/03/05 02:32:00;;;;;;;11.43;3.83;;;;;;;;;;5036815;28;20206;-67
2023/03/05 02:34:26;;;;;;;17.80;3.97;;;;;;;;;;5018530;28;20178;-68
2023/03/05 02:36:54;;;;;;;12.23;4.00;;;;;;;;;;5036435;28;20636;-67
2023/03/05 02:39:20;;;;;;;12.10;3.90;;;;;;;;;;5035982;28;20199;-68
2023/03/05 02:41:46;;;;;;;12.50;4.47;;;;;;;;;;5036315;28;20183;-67
2023/03/05 02:44:12;;;;;;;14.03;3.83;;;;;;;;;;5036290;28;20197;-67
2023/03/05 02:46:38;;;;;;;12.77;4.23;;;;;;;;;;5035891;28;20673;-67
2023/03/05 02:49:04;;;;;;;11.60;3.57;;;;;;;;;;5035825;28;20270;-68
2023/03/05 02:51:30;;;;;;;13.43;3.60;;;;;;;;;;5034997;28;20252;-68
2023/03/05 02:53:56;;;;;;;11.70;4.10;;;;;;;;;;5036530;28;20182;-66
2023/03/05 02:56:22;;;;;;;15.77;4.53;;;;;;;;;;5036141;28;20203;-68
2023/03/05 02:58:48;;;;;;;12.23;3.77;;;;;;;;;;5035291;28;20178;-69
2023/03/05 03:01:14;;;;;;;12.40;3.53;;;;;;;;;;5036097;28;20227;-68
2023/03/05 03:03:40;;;;;;;12.87;3.70;;;;;;;;;;5035066;28;20214;-66
2023/03/05 03:06:06;;;;;;;9.83;3.80;;;;;;;;;;5035430;28;20233;-66
2023/03/05 03:08:32;;;;;;;11.77;3.60;;;;;;;;;;5035749;28;20206;-67
2023/03/05 03:11:03;;;;;;;13.50;4.43;;;;;;;;;;5035607;28;20242;-67
2023/03/05 03:13:29;;;;;;;12.80;3.70;;;;;;;;;;5035924;28;20217;-67
2023/03/05 03:16:06;;;;;;;12.80;4.33;;;;;;;;;;5035566;28;20195;-67
2023/03/05 03:18:32;;;;;;;14.20;4.20;;;;;;;;;;5035630;28;20182;-68
2023/03/05 03:20:58;;;;;;;10.63;3.60;;;;;;;;;;5017881;28;20183;-67
2023/03/05 03:23:24;;;;;;;9.43;3.40;;;;;;;;;;5035250;28;20198;-67
2023/03/05 03:25:51;;;;;;;11.20;4.00;;;;;;;;;;5035537;28;20290;-67
2023/03/05 03:28:17;;;;;;;11.00;3.83;;;;;;;;;;5035459;28;20175;-67
2023/03/05 03:30:43;;;;;;;12.97;3.60;;;;;;;;;;5035207;28;20198;-66
2023/03/05 03:33:09;;;;;;;11.27;3.67;;;;;;;;;;5035324;28;20187;-67
2023/03/05 03:35:35;;;;;;;10.23;3.40;;;;;;;;;;5035110;28;20186;-64
2023/03/05 03:38:01;;;;;;;10.40;3.73;;;;;;;;;;5017126;28;20179;-67
2023/03/05 03:40:27;;;;;;;9.03;3.47;;;;;;;;;;5035301;28;20258;-66
2023/03/05 03:42:53;;;;;;;11.13;3.77;;;;;;;;;;5034592;28;20218;-66
2023/03/05 03:45:21;;;;;;;12.03;4.00;;;;;;;;;;5035068;28;20176;-66
2023/03/05 03:47:47;;;;;;;15.73;4.03;;;;;;;;;;5035268;28;20226;-68
2023/03/05 03:50:13;;;;;;;16.03;3.80;;;;;;;;;;5036195;28;20534;-67
2023/03/05 03:52:39;;;;;;;11.67;4.03;;;;;;;;;;5036814;28;20294;-68
2023/03/05 03:55:05;;;;;;;15.23;3.70;;;;;;;;;;5035267;28;20186;-68
2023/03/05 03:57:32;;;;;;;10.63;4.07;;;;;;;;;;5034795;28;20199;-67
2023/03/05 03:59:58;;;;;;;8.53;3.63;;;;;;;;;;5035324;28;20218;-67
2023/03/05 04:02:24;;;;;;;10.90;4.03;;;;;;;;;;5035365;28;20210;-68
2023/03/05 04:04:50;;;;;;;12.60;4.47;;;;;;;;;;5035093;28;20186;-67
2023/03/05 04:07:16;;;;;;;11.03;3.70;;;;;;;;;;5034606;28;20647;-66
2023/03/05 04:09:42;;;;;;;13.33;4.07;;;;;;;;;;5017351;28;20183;-67
2023/03/05 04:12:08;;;;;;;11.70;3.80;;;;;;;;;;5035063;28;20581;-67
2023/03/05 04:14:34;;;;;;;13.70;4.00;;;;;;;;;;5035166;28;20669;-66
2023/03/05 04:17:00;;;;;;;11.97;3.83;;;;;;;;;;5035180;28;20203;-68
2023/03/05 04:19:29;;;;;;;14.30;3.87;;;;;;;;;;5035030;28;20179;-68
2023/03/05 04:21:55;;;;;;;14.60;4.07;;;;;;;;;;5016951;28;20183;-68
2023/03/05 04:24:21;;;;;;;11.50;3.37;;;;;;;;;;5035723;28;20233;-69
2023/03/05 04:26:47;;;;;;;14.90;4.47;;;;;;;;;;5035631;28;20715;-68
2023/03/05 04:29:13;;;;;;;10.93;3.27;;;;;;;;;;5035378;28;20598;-67
2023/03/05 04:31:39;;;;;;;11.30;3.87;;;;;;;;;;5034676;28;20229;-68
2023/03/05 04:34:05;;;;;;;14.37;3.80;;;;;;;;;;5035482;28;20179;-67
2023/03/05 04:36:31;;;;;;;13.80;3.93;;;;;;;;;;5034409;28;20195;-67
2023/03/05 04:38:57;;;;;;;14.90;3.77;;;;;;;;;;5017027;28;20630;-67
2023/03/05 04:41:22;;;;;;;14.83;3.43;;;;;;;;;;5034459;28;20190;-67
2023/03/05 04:43:48;;;;;;;13.63;3.33;;;;;;;;;;5016606;28;20191;-67
2023/03/05 04:46:14;;;;;;;10.87;3.33;;;;;;;;;;5016574;28;20203;-68
2023/03/05 04:48:40;;;;;;;13.60;3.63;;;;;;;;;;5016773;28;20179;-67
2023/03/05 04:51:06;;;;;;;12.43;3.60;;;;;;;;;;5034518;28;20637;-69
2023/03/05 04:53:32;;;;;;;11.47;4.30;;;;;;;;;;5034547;28;20184;-67
2023/03/05 04:56:00;;;;;;;14.70;4.33;;;;;;;;;;5034240;28;20245;-67
2023/03/05 04:58:26;;;;;;;12.60;3.80;;;;;;;;;;5034195;28;20172;-68
2023/03/05 05:00:52;;;;;;;15.27;4.37;;;;;;;;;;5034496;28;20183;-67
2023/03/05 05:03:18;;;;;;;11.20;3.93;;;;;;;;;;5018966;28;20656;-68
2023/03/05 05:05:44;;;;;;;18.60;4.43;;;;;;;;;;5019937;28;20190;-68
2023/03/05 05:08:10;;;;;;;12.83;3.87;;;;;;;;;;5020349;28;20244;-67
2023/03/05 05:10:40;;;;;;;11.10;3.80;;;;;;;;;;5037989;28;20190;-68
2023/03/05 05:13:06;;;;;;;10.30;4.10;;;;;;;;;;5038031;28;20227;-69
2023/03/05 05:15:32;;;;;;;16.50;4.10;;;;;;;;;;5038075;28;20699;-68
2023/03/05 05:17:58;;;;;;;14.67;3.90;;;;;;;;;;5037897;28;20176;-68
2023/03/05 05:20:24;;;;;;;14.43;4.10;;;;;;;;;;5037640;28;20186;-69
2023/03/05 05:22:50;;;;;;;12.70;4.00;;;;;;;;;;5037166;28;20182;-68
2023/03/05 05:25:16;;;;;;;11.37;4.57;;;;;;;;;;5037106;28;20599;-67
2023/03/05 05:27:42;;;;;;;10.43;4.13;;;;;;;;;;5037085;28;20201;-67
2023/03/05 05:30:08;;;;;;;9.33;3.67;;;;;;;;;;5037535;28;20176;-68
2023/03/05 05:32:34;;;;;;;15.97;5.33;;;;;;;;;;5036823;28;20266;-68
2023/03/05 05:35:00;;;;;;;9.07;3.83;;;;;;;;;;5019856;28;20179;-67
2023/03/05 05:37:27;;;;;;;14.90;4.17;;;;;;;;;;5054704;23;20219;-71
2023/03/05 05:39:53;;;;;;;18.23;4.80;;;;;;;;;;5016864;28;20271;-72
2023/03/05 05:42:23;;;;;;;14.43;3.87;;;;;;;;;;5017613;28;20255;-71
2023/03/05 05:44:49;;;;;;;14.50;4.83;;;;;;;;;;4999357;28;20227;-71
2023/03/05 05:47:15;;;;;;;13.83;4.20;;;;;;;;;;4998973;28;20199;-70
2023/03/05 05:49:41;;;;;;;10.20;4.23;;;;;;;;;;4999198;28;20179;-71
2023/03/05 05:52:07;;;;;;;11.23;4.17;;;;;;;;;;5016439;28;20261;-70
2023/03/05 05:54:33;;;;;;;11.97;4.17;;;;;;;;;;5016721;28;20331;-71
2023/03/05 05:56:59;;;;;;;19.33;4.67;;;;;;;;;;5016234;28;20176;-71
2023/03/05 05:59:25;;;;;;;14.17;4.23;;;;;;;;;;5016503;28;20176;-71
2023/03/05 06:01:51;;;;;;;9.47;4.23;;;;;;;;;;4999135;28;20279;-70
2023/03/05 06:04:17;;;;;;;13.47;5.27;;;;;;;;;;5016901;28;20626;-70
2023/03/05 06:06:43;;;;;;;11.60;4.60;;;;;;;;;;4999335;28;20176;-71
2023/03/05 06:09:09;;;;;;;17.43;4.53;;;;;;;;;;5016285;28;20238;-70
2023/03/05 06:11:35;;;;;;;13.83;4.80;;;;;;;;;;5016482;28;20584;-70
2023/03/05 06:14:03;;;;;;;12.73;4.47;;;;;;;;;;5015140;28;20568;-70
2023/03/05 06:16:30;;;;;;;13.93;4.63;;;;;;;;;;4998551;28;20176;-70
2023/03/05 06:18:56;;;;;;;13.60;5.13;;;;;;;;;;4998517;28;20242;-71
2023/03/05 06:21:22;;;;;;;14.30;5.50;;;;;;;;;;5016412;28;20211;-72
2023/03/05 06:23:49;;;;;;;13.10;5.00;;;;;;;;;;5016659;28;20184;-70
2023/03/05 06:26:16;;;;;;;13.40;4.93;;;;;;;;;;5016605;28;20187;-72
2023/03/05 06:28:42;;;;;;;12.23;4.57;;;;;;;;;;5032525;28;20208;-70
2023/03/05 06:31:09;;;;;;;11.37;4.53;;;;;;;;;;5030986;28;20255;-70
2023/03/05 06:33:36;;;;;;;12.00;5.30;;;;;;;;;;5030485;28;20176;-70
2023/03/05 06:36:03;;;;;;;27.13;13.60;;;;;;;;;;5032673;28;20187;-70
2023/03/05 06:38:29;;;;;;;21.50;7.50;;;;;;;;;;5002899;28;20222;-70
2023/03/05 06:40:55;;;;;;;34.17;16.47;;;;;;;;;;5015691;28;20622;-70
2023/03/05 06:43:21;;;;;;;23.77;10.13;;;;;;;;;;5015264;28;20180;-70
2023/03/05 06:45:47;;;;;;;24.20;9.23;;;;;;;;;;5015442;28;20207;-70
2023/03/05 06:48:13;;;;;;;15.47;7.33;;;;;;;;;;5014986;28;20203;-70
2023/03/05 06:50:39;;;;;;;16.77;5.73;;;;;;;;;;5015099;28;20179;-71
2023/03/05 06:53:05;;;;;;;14.83;7.00;;;;;;;;;;4997058;28;20214;-70
2023/03/05 06:55:38;;;;;;;16.73;7.10;;;;;;;;;;4997874;28;20266;-71
2023/03/05 06:58:04;;;;;;;10.33;4.47;;;;;;;;;;5014918;28;20198;-70
2023/03/05 07:00:30;;;;;;;11.67;5.13;;;;;;;;;;4997316;28;20270;-70
2023/03/05 07:02:56;;;;;;;13.13;4.70;;;;;;;;;;4997378;28;20176;-70
2023/03/05 07:05:22;;;;;;;13.30;5.10;;;;;;;;;;4997215;28;20180;-70
2023/03/05 07:07:48;;;;;;;16.67;4.87;;;;;;;;;;5014686;28;20685;-70
2023/03/05 07:10:13;;;;;;;13.60;5.40;;;;;;;;;;5015313;28;20622;-70
2023/03/05 07:12:40;;;;;;;11.73;5.17;;;;;;;;;;5014840;28;20693;-70
2023/03/05 07:15:07;;;;;;;13.00;5.57;;;;;;;;;;4997145;28;20176;-70
2023/03/05 07:17:33;;;;;;;23.47;11.33;;;;;;;;;;4996982;28;20215;-70
2023/03/05 07:19:59;;;;;;;23.53;11.80;;;;;;;;;;5014610;28;20171;-70
2023/03/05 07:22:25;;;;;;;55.47;28.20;;;;;;;;;;4996755;28;20193;-71
2023/03/05 07:24:51;;;;;;;47.10;23.57;;;;;;;;;;5014232;28;20657;-70
2023/03/05 07:27:17;;;;;;;20.23;8.13;;;;;;;;;;5015344;28;20637;-69
2023/03/05 07:29:42;;;;;;;43.57;21.87;;;;;;;;;;5014492;28;20183;-72
2023/03/05 07:32:08;;;;;;;20.27;7.03;;;;;;;;;;5014218;28;20554;-72
2023/03/05 07:34:36;;;;;;;23.07;8.87;;;;;;;;;;5014833;28;20541;-70
2023/03/05 07:37:02;;;;;;;18.13;7.10;;;;;;;;;;4996613;28;20302;-70
2023/03/05 07:39:28;;;;;;;24.97;14.20;;;;;;;;;;5014762;28;20204;-70
2023/03/05 07:41:54;;;;;;;24.23;8.30;;;;;;;;;;4996573;28;20188;-70
2023/03/05 07:44:20;;;;;;;27.63;14.07;;;;;;;;;;5014697;28;20568;-70
2023/03/05 07:46:46;;;;;;;16.93;8.27;;;;;;;;;;4996762;28;20283;-68
2023/03/05 07:49:12;;;;;;;16.23;8.23;;;;;;;;;;5014150;28;20275;-72
2023/03/05 07:51:39;;;;;;;10.47;5.23;;;;;;;;;;5015653;28;20195;-71
2023/03/05 07:54:06;;;;;;;17.17;9.37;;;;;;;;;;4997171;28;20176;-70
2023/03/05 07:56:34;;;;;;;18.63;6.70;;;;;;;;;;5014693;28;20171;-69
2023/03/05 07:59:01;;;;;;;17.17;8.13;;;;;;;;;;5013950;28;20200;-70
2023/03/05 08:01:27;;;;;;;15.77;6.13;;;;;;;;;;4996234;28;20191;-71
2023/03/05 08:03:53;;;;;;;21.13;6.83;;;;;;;;;;5014241;28;20215;-70
2023/03/05 08:06:19;;;;;;;16.13;6.17;;;;;;;;;;4996275;28;20187;-72
2023/03/05 08:08:45;;;;;;;22.50;7.00;;;;;;;;;;4996790;28;20209;-70
2023/03/05 08:11:13;;;;;;;19.47;6.07;;;;;;;;;;5013967;28;20800;-70
2023/03/05 08:13:39;;;;;;;19.23;6.77;;;;;;;;;;4996199;28;20207;-70
2023/03/05 08:16:06;;;;;;;13.83;6.20;;;;;;;;;;4996477;28;20191;-69
2023/03/05 08:18:32;;;;;;;12.40;5.43;;;;;;;;;;5014157;28;20278;-71
2023/03/05 08:20:59;;;;;;;16.30;5.37;;;;;;;;;;4997106;28;20175;-69
2023/03/05 08:23:25;;;;;;;22.80;12.17;;;;;;;;;;5014150;28;20258;-69
2023/03/05 08:25:51;;;;;;;10.63;5.30;;;;;;;;;;4996891;28;20201;-69
2023/03/05 08:28:18;;;;;;;23.77;21.20;;;;;;;;;;5014399;28;20203;-69
2023/03/05 08:30:44;;;;;;;17.43;7.80;;;;;;;;;;5014415;28;20187;-71
2023/03/05 08:33:10;;;;;;;15.07;7.33;;;;;;;;;;4996554;28;20649;-70
2023/03/05 08:35:37;;;;;;;15.70;8.57;;;;;;;;;;4996571;28;20172;-70
2023/03/05 08:38:03;;;;;;;16.97;8.83;;;;;;;;;;5016392;28;20223;-70
2023/03/05 08:40:29;;;;;;;12.93;6.70;;;;;;;;;;5017720;28;20172;-70
2023/03/05 08:42:55;;;;;;;20.57;7.77;;;;;;;;;;4999859;28;20577;-70
2023/03/05 08:45:22;;;;;;;13.20;6.20;;;;;;;;;;5000221;28;20599;-69
2023/03/05 08:47:48;;;;;;;20.77;7.20;;;;;;;;;;5000010;28;20206;-70
2023/03/05 08:50:14;;;;;;;17.47;8.10;;;;;;;;;;5017899;28;20180;-70
2023/03/05 08:52:40;;;;;;;16.80;9.97;;;;;;;;;;5017475;28;20203;-69
2023/03/05 08:55:06;;;;;;;13.87;7.57;;;;;;;;;;5018252;28;20614;-69
2023/03/05 08:57:32;;;;;;;18.13;8.47;;;;;;;;;;5017331;28;20314;-70
2023/03/05 08:59:58;;;;;;;16.67;8.33;;;;;;;;;;5002507;28;20251;-70
2023/03/05 09:02:24;;;;;;;15.17;9.23;;;;;;;;;;5020073;28;20537;-70
2023/03/05 09:04:50;;;;;;;22.20;9.30;;;;;;;;;;5020462;28;20550;-71
2023/03/05 09:07:16;;;;;;;12.90;7.27;;;;;;;;;;5020859;28;20259;-70
2023/03/05 09:09:42;;;;;;;12.57;7.30;;;;;;;;;;5017431;28;20195;-70
2023/03/05 09:12:08;;;;;;;14.77;8.40;;;;;;;;;;5000119;28;20235;-70
2023/03/05 09:14:34;;;;;;;14.70;7.60;;;;;;;;;;5017383;28;20202;-71
2023/03/05 09:17:01;;;;;;;13.77;8.00;;;;;;;;;;5017504;28;20574;-70
2023/03/05 09:19:27;;;;;;;12.20;8.17;;;;;;;;;;5016807;28;20245;-70
2023/03/05 09:21:53;;;;;;;13.30;8.53;;;;;;;;;;5016497;28;20709;-70
2023/03/05 09:24:19;;;;;;;12.87;8.57;;;;;;;;;;4998978;28;20184;-70
2023/03/05 09:26:45;;;;;;;12.77;7.60;;;;;;;;;;5016355;28;20184;-71
2023/03/05 09:29:11;;;;;;;15.43;8.27;;;;;;;;;;4998917;28;20557;-70
2023/03/05 09:31:37;;;;;;;13.50;8.30;;;;;;;;;;5016354;28;20204;-70
2023/03/05 09:34:04;;;;;;;14.97;7.43;;;;;;;;;;4998692;28;20180;-70
2023/03/05 09:36:30;;;;;;;14.07;7.80;;;;;;;;;;4998561;28;20310;-70
2023/03/05 09:38:57;;;;;;;12.83;7.93;;;;;;;;;;5015959;28;20286;-70
2023/03/05 09:41:46;;;;;;;18.50;8.67;;;;;;;;;;5016095;28;20180;-72
2023/03/05 09:44:27;;;;;;;11.20;7.30;;;;;;;;;;4988271;28;20234;-70
2023/03/05 09:46:54;;;;;;;12.57;7.70;;;;;;;;;;4998256;28;20191;-70
2023/03/05 09:49:33;;;;;;;10.67;7.33;;;;;;;;;;4998365;28;20554;-69
2023/03/05 09:52:02;;;;;;;11.17;7.40;;;;;;;;;;5015642;28;20199;-70
2023/03/05 09:54:37;;;;;;;12.63;6.90;;;;;;;;;;5015846;28;20222;-70
2023/03/05 09:57:04;;;;;;;11.03;6.93;;;;;;;;;;5015674;28;20553;-70
2023/03/05 09:59:34;;;;;;;10.30;6.00;;;;;;;;;;4997932;28;20645;-69
2023/03/05 10:02:02;;;;;;;8.20;5.93;;;;;;;;;;5016077;28;20187;-70
2023/03/05 10:04:37;;;;;;;7.83;5.57;;;;;;;;;;4997853;28;20618;-70
2023/03/05 10:07:19;;;;;;;10.83;6.47;;;;;;;;;;4997917;28;20226;-70
2023/03/05 10:09:46;;;;;;;7.60;5.23;;;;;;;;;;4997809;28;20187;-69
2023/03/05 10:12:12;;;;;;;8.73;5.93;;;;;;;;;;5015475;28;20358;-70
2023/03/05 10:14:39;;;;;;;9.43;5.83;;;;;;;;;;4998251;28;20229;-70
2023/03/05 10:17:28;;;;;;;7.23;5.57;;;;;;;;;;4997986;28;20200;-69
2023/03/05 10:20:03;;;;;;;11.60;7.97;;;;;;;;;;5015196;28;20188;-69
2023/03/05 10:22:37;;;;;;;9.10;6.83;;;;;;;;;;5016081;28;20218;-69
2023/03/05 10:25:15;;;;;;;13.40;7.63;;;;;;;;;;5015746;28;20294;-70
2023/03/05 10:27:50;;;;;;;11.07;6.70;;;;;;;;;;5015055;28;20195;-70
2023/03/05 10:30:33;;;;;;;11.03;7.00;;;;;;;;;;5015131;28;20312;-70
2023/03/05 10:33:08;;;;;;;8.80;6.33;;;;;;;;;;4997407;28;20208;-70
2023/03/05 10:35:46;;;;;;;10.57;6.63;;;;;;;;;;5014839;28;20176;-70
2023/03/05 10:38:15;;;;;;;7.57;5.63;;;;;;;;;;4997109;28;20216;-69
2023/03/05 10:40:41;;;;;;;9.30;6.63;;;;;;;;;;5014750;28;20229;-69
2023/03/05 10:43:15;;;;;;;12.00;7.43;;;;;;;;;;4996982;28;20540;-70
2023/03/05 10:45:47;;;;;;;10.37;6.70;;;;;;;;;;5014960;28;20217;-70
2023/03/05 10:48:16;;;;;;;8.23;5.40;;;;;;;;;;5014505;28;20207;-70
2023/03/05 10:50:44;;;;;;;6.63;5.03;;;;;;;;;;4996801;28;20178;-70
2023/03/05 10:53:16;;;;;;;11.90;6.70;;;;;;;;;;5014701;28;20255;-70
2023/03/05 10:55:42;;;;;;;12.53;5.80;;;;;;;;;;5014492;28;20307;-69
2023/03/05 10:58:13;;;;;;;7.77;5.80;;;;;;;;;;5014357;28;20223;-69
2023/03/05 11:00:39;;;;;;;8.60;6.03;;;;;;;;;;4996315;28;20176;-70
2023/03/05 11:03:06;;;;;;;8.00;5.70;;;;;;;;;;5014884;28;20263;-70
2023/03/05 11:05:35;;;;;;;9.20;4.80;;;;;;;;;;4996767;28;20215;-70
2023/03/05 11:08:17;;;;;;;6.33;4.63;;;;;;;;;;5014262;28;20203;-70
2023/03/05 11:10:43;;;;;;;6.70;4.10;;;;;;;;;;4996506;28;20171;-70
2023/03/05 11:13:24;;;;;;;6.63;4.40;;;;;;;;;;4996572;28;20244;-70
2023/03/05 11:15:58;;;;;;;7.73;4.20;;;;;;;;;;4996442;28;20174;-70
2023/03/05 11:18:24;;;;;;;4.57;4.10;;;;;;;;;;5014194;28;20649;-70
2023/03/05 11:20:50;;;;;;;8.60;5.60;;;;;;;;;;5013945;28;20642;-70
2023/03/05 11:23:24;;;;;;;7.50;5.37;;;;;;;;;;4996232;28;20222;-69
2023/03/05 11:26:09;;;;;;;9.63;4.20;;;;;;;;;;4996280;28;20291;-70
2023/03/05 11:28:37;;;;;;;6.43;4.00;;;;;;;;;;4996353;28;20681;-70
2023/03/05 11:31:15;;;;;;;7.90;3.90;;;;;;;;;;4996080;28;20563;-70
2023/03/05 11:33:54;;;;;;;6.40;3.70;;;;;;;;;;5014223;28;20653;-69
2023/03/05 11:36:20;;;;;;;4.27;2.77;;;;;;;;;;5014095;28;20168;-70
2023/03/05 11:38:51;;;;;;;5.00;2.87;;;;;;;;;;5013564;28;20708;-70
2023/03/05 11:41:20;;;;;;;5.27;3.27;;;;;;;;;;5013882;28;20258;-70
2023/03/05 11:43:47;;;;;;;5.63;3.20;;;;;;;;;;5013697;28;20258;-70
2023/03/05 11:46:15;;;;;;;6.40;3.53;;;;;;;;;;5013751;28;20179;-70
2023/03/05 11:48:43;;;;;;;6.53;3.40;;;;;;;;;;5014060;28;20192;-69
2023/03/05 11:51:19;;;;;;;3.83;3.33;;;;;;;;;;5013588;28;20206;-70
2023/03/05 11:53:47;;;;;;;4.93;3.53;;;;;;;;;;5014253;28;20273;-70
2023/03/05 11:56:32;;;;;;;7.27;3.20;;;;;;;;;;5014151;28;20259;-68
2023/03/05 11:59:05;;;;;;;9.03;3.33;;;;;;;;;;5037636;23;20228;-67
2023/03/05 12:01:32;;;;;;;5.27;3.30;;;;;;;;;;5038543;28;20213;-68
2023/03/05 12:03:59;;;;;;;4.00;2.97;;;;;;;;;;5056625;28;20662;-69
2023/03/05 12:06:39;;;;;;;3.67;2.60;;;;;;;;;;5054015;28;20174;-68
2023/03/05 12:09:29;;;;;;;5.20;3.27;;;;;;;;;;5053425;28;20190;-69
2023/03/05 12:12:07;;;;;;;3.87;3.27;;;;;;;;;;5052480;28;20218;-70
2023/03/05 12:14:41;;;;;;;4.33;3.17;;;;;;;;;;5035218;28;20209;-68
2023/03/05 12:17:12;;;;;;;9.37;7.17;;;;;;;;;;5053169;28;20171;-69
2023/03/05 12:19:45;;;;;;;6.53;4.57;;;;;;;;;;5053074;28;20265;-68
2023/03/05 12:22:22;;;;;;;5.50;3.47;;;;;;;;;;5053296;28;20546;-67
2023/03/05 12:24:48;;;;;;;9.33;5.13;;;;;;;;;;5035229;28;20232;-68
2023/03/05 12:27:15;;;;;;;5.73;3.67;;;;;;;;;;5053426;28;20182;-69
2023/03/05 12:29:45;;;;;;;8.97;3.90;;;;;;;;;;5035152;28;20648;-70
2023/03/05 12:32:37;;;;;;;7.03;4.30;;;;;;;;;;5035012;28;20685;-68
2023/03/05 12:35:04;;;;;;;5.60;4.37;;;;;;;;;;5005610;28;20244;-69
2023/03/05 12:37:31;;;;;;;5.07;3.90;;;;;;;;;;5053493;28;20274;-68
2023/03/05 12:40:19;;;;;;;6.53;4.03;;;;;;;;;;5055157;28;20616;-67
2023/03/05 12:42:53;;;;;;;8.20;6.20;;;;;;;;;;5036372;28;20561;-69
2023/03/05 12:45:23;;;;;;;19.20;11.33;;;;;;;;;;5053059;28;20178;-68
2023/03/05 12:47:55;;;;;;;5.57;3.20;;;;;;;;;;5053319;28;20271;-69
2023/03/05 12:50:27;;;;;;;4.57;3.70;;;;;;;;;;5034836;28;20178;-69
2023/03/05 12:53:07;;;;;;;2.60;2.20;;;;;;;;;;5034723;28;20210;-68
2023/03/05 12:55:39;;;;;;;3.03;2.73;;;;;;;;;;5052486;28;20163;-69
2023/03/05 12:58:11;;;;;;;3.83;2.40;;;;;;;;;;5034642;28;20347;-70
2023/03/05 13:00:45;;;;;;;2.43;1.90;;;;;;;;;;5052901;28;20175;-69
2023/03/05 13:03:16;;;;;;;3.00;2.30;;;;;;;;;;5034855;28;20186;-69
2023/03/05 13:05:51;;;;;;;3.97;2.10;;;;;;;;;;5035101;28;20558;-70
2023/03/05 13:08:17;;;;;;;3.20;2.47;;;;;;;;;;5052554;28;20206;-69
2023/03/05 13:10:43;;;;;;;5.57;2.80;;;;;;;;;;5052807;28;20236;-67
2023/03/05 13:13:15;;;;;;;2.90;2.37;;;;;;;;;;5052698;28;20170;-69
2023/03/05 13:15:44;;;;;;;3.07;2.63;;;;;;;;;;5035092;28;20276;-68
2023/03/05 13:18:14;;;;;;;6.47;3.13;;;;;;;;;;5052636;28;20569;-68
2023/03/05 13:20:41;;;;;;;5.17;2.93;;;;;;;;;;5052956;28;20653;-70
2023/03/05 13:23:07;;;;;;;5.70;4.17;;;;;;;;;;5035758;28;20648;-69
2023/03/05 13:25:33;;;;;;;6.83;4.37;;;;;;;;;;5056130;28;20182;-69
2023/03/05 13:28:03;;;;;;;4.07;3.63;;;;;;;;;;5056029;28;20220;-69
2023/03/05 13:30:29;;;;;;;6.40;4.90;;;;;;;;;;5055998;28;20236;-69
2023/03/05 13:32:58;;;;;;;5.33;3.87;;;;;;;;;;5037850;28;20309;-68
2023/03/05 13:35:24;;;;;;;8.03;6.97;;;;;;;;;;5037645;28;20542;-67
2023/03/05 13:37:50;;;;;;;5.97;3.97;;;;;;;;;;5055765;28;20248;-68
2023/03/05 13:40:21;;;;;;;6.33;4.10;;;;;;;;;;5056191;28;20209;-68
2023/03/05 13:42:47;;;;;;;7.10;4.40;;;;;;;;;;5055578;28;20197;-68
2023/03/05 13:45:43;;;;;;;5.00;4.33;;;;;;;;;;5038223;28;20206;-69
2023/03/05 13:48:18;;;;;;;5.63;3.80;;;;;;;;;;5035434;28;20202;-68
2023/03/05 13:50:44;;;;;;;11.17;7.20;;;;;;;;;;5037554;28;20257;-69
2023/03/05 13:53:19;;;;;;;7.73;5.97;;;;;;;;;;5055616;28;20270;-68
2023/03/05 13:55:46;;;;;;;17.87;11.30;;;;;;;;;;5055723;28;20181;-67
2023/03/05 13:58:31;;;;;;;5.90;4.60;;;;;;;;;;5037441;28;20236;-68
2023/03/05 14:01:15;;;;;;;10.37;5.63;;;;;;;;;;5038238;28;20182;-68
2023/03/05 14:03:41;;;;;;;5.63;4.53;;;;;;;;;;5037665;28;20660;-68
2023/03/05 14:06:09;;;;;;;6.40;4.90;;;;;;;;;;5055649;28;20179;-69
2023/03/05 14:08:36;;;;;;;7.47;5.37;;;;;;;;;;5055868;28;20218;-69
2023/03/05 14:11:11;;;;;;;6.60;4.67;;;;;;;;;;5055672;28;20205;-67
2023/03/05 14:13:37;;;;;;;6.70;4.80;;;;;;;;;;5055084;28;20159;-68
2023/03/05 14:16:04;;;;;;;6.77;4.43;;;;;;;;;;5055330;28;20257;-68
2023/03/05 14:18:31;;;;;;;5.67;4.10;;;;;;;;;;5055137;28;20672;-68
2023/03/05 14:21:23;;;;;;;4.30;3.90;;;;;;;;;;5055071;28;20174;-69
2023/03/05 14:23:51;;;;;;;6.53;4.40;;;;;;;;;;5033572;28;20197;-68
2023/03/05 14:26:28;;;;;;;5.70;4.37;;;;;;;;;;5037172;28;20228;-68
2023/03/05 14:28:56;;;;;;;6.07;4.70;;;;;;;;;;5054919;28;20263;-69
2023/03/05 14:31:22;;;;;;;4.67;4.27;;;;;;;;;;5055212;28;20289;-68
2023/03/05 14:33:49;;;;;;;5.63;4.70;;;;;;;;;;5055127;28;20179;-68
2023/03/05 14:36:20;;;;;;;5.87;5.17;;;;;;;;;;5053878;28;20261;-68
2023/03/05 14:38:45;;;;;;;4.83;4.20;;;;;;;;;;5055066;28;20190;-68